sensor_id;sensor_type;location;lat;lon;timestamp;temperature;humidity
70986;DHT22;58645;43.068;25.610;2022-11-18T00:00:06;9.70;99.90
70986;DHT22;58645;43.068;25.610;2022-11-18T00:02:32;9.70;99.90
70986;DHT22;58645;43.068;25.610;2022-11-18T00:04:58;9.60;99.90
70986;DHT22;58645;43.068;25.610;2022-11-18T00:07:24;9.60;99.90
70986;DHT22;58645;43.068;25.610;2022-11-18T00:09:50;9.50;99.90
70986;DHT22;58645;43.068;25.610;2022-11-18T00:12:16;9.50;99.90
70986;DHT22;58645;43.068;25.610;2022-11-18T00:15:00;9.50;99.90
70986;DHT22;58645;43.068;25.610;2022-11-18T00:17:26;9.40;99.90
70986;DHT22;58645;43.068;25.610;2022-11-18T00:19:51;9.40;99.90
70986;DHT22;58645;43.068;25.610;2022-11-18T00:22:17;9.30;99.90
70986;DHT22;58645;43.068;25.610;2022-11-18T00:24:43;9.30;99.90
70986;DHT22;58645;43.068;25.610;2022-11-18T00:27:09;9.30;99.90
70986;DHT22;58645;43.068;25.610;2022-11-18T00:29:34;9.30;99.90
70986;DHT22;58645;43.068;25.610;2022-11-18T00:32:00;9.30;99.90
70986;DHT22;58645;43.068;25.610;2022-11-18T00:34:26;9.30;99.90
70986;DHT22;58645;43.068;25.610;2022-11-18T00:36:51;9.40;99.90
70986;DHT22;58645;43.068;25.610;2022-11-18T00:39:18;9.30;99.90
70986;DHT22;58645;43.068;25.610;2022-11-18T00:41:45;9.30;99.90
70986;DHT22;58645;43.068;25.610;2022-11-18T00:44:29;9.30;99.90
70986;DHT22;58645;43.068;25.610;2022-11-18T00:46:55;9.30;99.90
70986;DHT22;58645;43.068;25.610;2022-11-18T00:49:21;9.30;99.90
70986;DHT22;58645;43.068;25.610;2022-11-18T00:51:47;9.30;99.90
70986;DHT22;58645;43.068;25.610;2022-11-18T00:54:13;9.20;99.90
70986;DHT22;58645;43.068;25.610;2022-11-18T00:56:39;9.20;99.90
70986;DHT22;58645;43.068;25.610;2022-11-18T00:59:04;9.20;99.90
70986;DHT22;58645;43.068;25.610;2022-11-18T01:01:30;9.10;99.90
70986;DHT22;58645;43.068;25.610;2022-11-18T01:03:56;9.10;99.90
70986;DHT22;58645;43.068;25.610;2022-11-18T01:06:22;9.10;99.90
70986;DHT22;58645;43.068;25.610;2022-11-18T01:08:48;9.10;99.90
70986;DHT22;58645;43.068;25.610;2022-11-18T01:11:14;8.90;99.90
70986;DHT22;58645;43.068;25.610;2022-11-18T01:13:58;9.00;99.90
70986;DHT22;58645;43.068;25.610;2022-11-18T01:16:25;9.00;99.90
70986;DHT22;58645;43.068;25.610;2022-11-18T01:18:52;9.00;99.90
70986;DHT22;58645;43.068;25.610;2022-11-18T01:21:17;9.00;99.90
70986;DHT22;58645;43.068;25.610;2022-11-18T01:23:44;8.90;99.90
70986;DHT22;58645;43.068;25.610;2022-11-18T01:26:11;8.90;99.90
70986;DHT22;58645;43.068;25.610;2022-11-18T01:28:38;8.80;99.90
70986;DHT22;58645;43.068;25.610;2022-11-18T01:31:16;8.80;99.90
70986;DHT22;58645;43.068;25.610;2022-11-18T01:33:43;8.80;99.90
70986;DHT22;58645;43.068;25.610;2022-11-18T01:36:26;8.80;99.90
70986;DHT22;58645;43.068;25.610;2022-11-18T01:38:53;8.70;99.90
70986;DHT22;58645;43.068;25.610;2022-11-18T01:41:20;8.70;99.90
70986;DHT22;58645;43.068;25.610;2022-11-18T01:43:59;8.70;99.90
70986;DHT22;58645;43.068;25.610;2022-11-18T01:46:30;8.70;99.90
70986;DHT22;58645;43.068;25.610;2022-11-18T01:49:10;8.60;99.90
70986;DHT22;58645;43.068;25.610;2022-11-18T01:51:53;8.60;99.90
70986;DHT22;58645;43.068;25.610;2022-11-18T01:54:30;8.60;99.90
70986;DHT22;58645;43.068;25.610;2022-11-18T01:57:01;8.60;99.90
70986;DHT22;58645;43.068;25.610;2022-11-18T01:59:32;8.50;99.90
70986;DHT22;58645;43.068;25.610;2022-11-18T02:02:02;8.50;99.90
70986;DHT22;58645;43.068;25.610;2022-11-18T02:04:30;8.50;99.90
70986;DHT22;58645;43.068;25.610;2022-11-18T02:06:57;8.50;99.90
70986;DHT22;58645;43.068;25.610;2022-11-18T02:09:23;8.50;99.90
70986;DHT22;58645;43.068;25.610;2022-11-18T02:11:49;8.40;99.90
70986;DHT22;58645;43.068;25.610;2022-11-18T02:14:18;8.40;99.90
70986;DHT22;58645;43.068;25.610;2022-11-18T02:30:57;8.20;99.90
70986;DHT22;58645;43.068;25.610;2022-11-18T02:36:30;8.20;99.90
70986;DHT22;58645;43.068;25.610;2022-11-18T02:39:06;8.20;99.90
70986;DHT22;58645;43.068;25.610;2022-11-18T02:41:34;8.20;99.90
70986;DHT22;58645;43.068;25.610;2022-11-18T02:44:21;8.10;99.90
70986;DHT22;58645;43.068;25.610;2022-11-18T02:46:53;8.00;99.90
70986;DHT22;58645;43.068;25.610;2022-11-18T02:49:32;7.90;99.90
70986;DHT22;58645;43.068;25.610;2022-11-18T02:52:00;7.90;99.90
70986;DHT22;58645;43.068;25.610;2022-11-18T02:54:28;7.80;99.90
70986;DHT22;58645;43.068;25.610;2022-11-18T02:56:54;7.80;99.90
70986;DHT22;58645;43.068;25.610;2022-11-18T02:59:20;7.80;99.90
70986;DHT22;58645;43.068;25.610;2022-11-18T03:01:46;7.80;99.90
70986;DHT22;58645;43.068;25.610;2022-11-18T03:04:14;7.80;99.90
70986;DHT22;58645;43.068;25.610;2022-11-18T03:07:28;7.80;99.90
70986;DHT22;58645;43.068;25.610;2022-11-18T03:09:34;7.70;99.90
70986;DHT22;58645;43.068;25.610;2022-11-18T03:12:33;7.70;99.90
70986;DHT22;58645;43.068;25.610;2022-11-18T03:20:28;7.70;99.90
70986;DHT22;58645;43.068;25.610;2022-11-18T03:23:03;7.70;99.90
70986;DHT22;58645;43.068;25.610;2022-11-18T03:25:42;7.70;99.90
70986;DHT22;58645;43.068;25.610;2022-11-18T03:33:31;7.70;99.90
70986;DHT22;58645;43.068;25.610;2022-11-18T03:36:01;7.70;99.90
70986;DHT22;58645;43.068;25.610;2022-11-18T03:38:32;7.70;99.90
70986;DHT22;58645;43.068;25.610;2022-11-18T03:41:01;7.70;99.90
70986;DHT22;58645;43.068;25.610;2022-11-18T03:43:36;7.70;99.90
70986;DHT22;58645;43.068;25.610;2022-11-18T03:46:11;7.60;99.90
70986;DHT22;58645;43.068;25.610;2022-11-18T03:48:59;7.60;99.90
70986;DHT22;58645;43.068;25.610;2022-11-18T03:51:34;7.60;99.90
70986;DHT22;58645;43.068;25.610;2022-11-18T03:54:22;7.60;99.90
70986;DHT22;58645;43.068;25.610;2022-11-18T03:56:55;7.60;99.90
70986;DHT22;58645;43.068;25.610;2022-11-18T03:59:29;7.60;99.90
70986;DHT22;58645;43.068;25.610;2022-11-18T04:02:15;7.60;99.90
70986;DHT22;58645;43.068;25.610;2022-11-18T04:04:43;7.50;99.90
70986;DHT22;58645;43.068;25.610;2022-11-18T04:10:05;7.50;99.90
70986;DHT22;58645;43.068;25.610;2022-11-18T04:12:39;7.50;99.90
70986;DHT22;58645;43.068;25.610;2022-11-18T04:15:06;7.40;99.90
70986;DHT22;58645;43.068;25.610;2022-11-18T04:17:32;7.40;99.90
70986;DHT22;58645;43.068;25.610;2022-11-18T04:19:58;7.40;99.90
70986;DHT22;58645;43.068;25.610;2022-11-18T04:22:24;7.40;99.90
70986;DHT22;58645;43.068;25.610;2022-11-18T04:24:49;7.40;99.90
70986;DHT22;58645;43.068;25.610;2022-11-18T04:27:15;7.30;99.90
70986;DHT22;58645;43.068;25.610;2022-11-18T04:29:41;7.20;99.90
70986;DHT22;58645;43.068;25.610;2022-11-18T04:32:07;7.30;99.90
70986;DHT22;58645;43.068;25.610;2022-11-18T04:34:32;7.20;99.90
70986;DHT22;58645;43.068;25.610;2022-11-18T04:36:58;7.20;99.90
70986;DHT22;58645;43.068;25.610;2022-11-18T04:39:24;7.20;99.90
70986;DHT22;58645;43.068;25.610;2022-11-18T04:41:50;7.20;99.90
70986;DHT22;58645;43.068;25.610;2022-11-18T04:44:27;7.10;99.90
70986;DHT22;58645;43.068;25.610;2022-11-18T04:46:54;7.10;99.90
70986;DHT22;58645;43.068;25.610;2022-11-18T04:49:20;7.10;99.90
70986;DHT22;58645;43.068;25.610;2022-11-18T04:51:46;7.10;99.90
70986;DHT22;58645;43.068;25.610;2022-11-18T04:54:13;7.10;99.90
70986;DHT22;58645;43.068;25.610;2022-11-18T04:56:39;7.00;99.90
70986;DHT22;58645;43.068;25.610;2022-11-18T04:59:06;7.00;99.90
70986;DHT22;58645;43.068;25.610;2022-11-18T05:01:32;6.80;99.90
70986;DHT22;58645;43.068;25.610;2022-11-18T05:03:59;6.70;99.90
70986;DHT22;58645;43.068;25.610;2022-11-18T05:06:27;6.60;99.90
70986;DHT22;58645;43.068;25.610;2022-11-18T05:08:53;6.50;99.90
70986;DHT22;58645;43.068;25.610;2022-11-18T05:11:19;6.50;99.90
70986;DHT22;58645;43.068;25.610;2022-11-18T05:14:04;6.40;99.90
70986;DHT22;58645;43.068;25.610;2022-11-18T05:16:29;6.30;99.90
70986;DHT22;58645;43.068;25.610;2022-11-18T05:18:58;6.20;99.90
70986;DHT22;58645;43.068;25.610;2022-11-18T05:21:23;6.20;99.90
70986;DHT22;58645;43.068;25.610;2022-11-18T05:23:49;6.20;99.90
70986;DHT22;58645;43.068;25.610;2022-11-18T05:26:15;6.20;99.90
70986;DHT22;58645;43.068;25.610;2022-11-18T05:28:40;6.20;99.90
70986;DHT22;58645;43.068;25.610;2022-11-18T05:31:11;6.30;99.90
70986;DHT22;58645;43.068;25.610;2022-11-18T05:33:38;6.40;99.90
70986;DHT22;58645;43.068;25.610;2022-11-18T05:36:05;6.40;99.90
70986;DHT22;58645;43.068;25.610;2022-11-18T05:38:32;6.40;99.90
70986;DHT22;58645;43.068;25.610;2022-11-18T05:40:57;6.50;99.90
70986;DHT22;58645;43.068;25.610;2022-11-18T05:43:26;6.50;99.90
70986;DHT22;58645;43.068;25.610;2022-11-18T05:45:52;6.60;99.90
70986;DHT22;58645;43.068;25.610;2022-11-18T05:48:18;6.70;99.90
70986;DHT22;58645;43.068;25.610;2022-11-18T05:50:47;6.80;99.90
70986;DHT22;58645;43.068;25.610;2022-11-18T05:53:18;6.90;99.90
70986;DHT22;58645;43.068;25.610;2022-11-18T05:55:52;7.20;99.90
70986;DHT22;58645;43.068;25.610;2022-11-18T05:58:19;7.40;99.90
70986;DHT22;58645;43.068;25.610;2022-11-18T06:00:47;8.20;99.90
70986;DHT22;58645;43.068;25.610;2022-11-18T06:03:20;10.10;99.90
70986;DHT22;58645;43.068;25.610;2022-11-18T06:05:48;11.30;99.90
70986;DHT22;58645;43.068;25.610;2022-11-18T06:08:15;12.20;99.90
70986;DHT22;58645;43.068;25.610;2022-11-18T06:10:43;13.00;99.90
70986;DHT22;58645;43.068;25.610;2022-11-18T06:13:15;13.70;99.30
70986;DHT22;58645;43.068;25.610;2022-11-18T06:15:43;14.50;92.40
70986;DHT22;58645;43.068;25.610;2022-11-18T06:18:25;14.80;86.80
70986;DHT22;58645;43.068;25.610;2022-11-18T06:20:57;15.70;83.70
70986;DHT22;58645;43.068;25.610;2022-11-18T06:23:26;16.20;79.30
70986;DHT22;58645;43.068;25.610;2022-11-18T06:25:53;16.50;76.20
70986;DHT22;58645;43.068;25.610;2022-11-18T06:28:20;16.80;73.00
70986;DHT22;58645;43.068;25.610;2022-11-18T06:31:02;16.90;71.10
70986;DHT22;58645;43.068;25.610;2022-11-18T06:33:30;16.80;69.70
70986;DHT22;58645;43.068;25.610;2022-11-18T06:35:56;17.80;67.40
70986;DHT22;58645;43.068;25.610;2022-11-18T06:38:25;18.10;64.50
70986;DHT22;58645;43.068;25.610;2022-11-18T06:44:07;18.90;61.20
70986;DHT22;58645;43.068;25.610;2022-11-18T06:47:04;19.60;60.60
70986;DHT22;58645;43.068;25.610;2022-11-18T06:49:32;19.70;59.00
70986;DHT22;58645;43.068;25.610;2022-11-18T06:52:24;20.40;57.60
70986;DHT22;58645;43.068;25.610;2022-11-18T06:54:56;21.00;56.70
70986;DHT22;58645;43.068;25.610;2022-11-18T06:57:21;21.40;55.80
70986;DHT22;58645;43.068;25.610;2022-11-18T06:59:47;21.80;54.40
70986;DHT22;58645;43.068;25.610;2022-11-18T07:02:13;21.90;53.60
70986;DHT22;58645;43.068;25.610;2022-11-18T07:04:45;22.10;53.10
70986;DHT22;58645;43.068;25.610;2022-11-18T07:07:20;22.20;52.40
70986;DHT22;58645;43.068;25.610;2022-11-18T07:09:45;22.40;51.80
70986;DHT22;58645;43.068;25.610;2022-11-18T07:12:11;22.10;52.00
70986;DHT22;58645;43.068;25.610;2022-11-18T07:14:37;21.80;52.40
70986;DHT22;58645;43.068;25.610;2022-11-18T07:17:03;21.90;51.50
70986;DHT22;58645;43.068;25.610;2022-11-18T07:19:29;21.80;52.20
70986;DHT22;58645;43.068;25.610;2022-11-18T07:21:54;22.10;52.10
70986;DHT22;58645;43.068;25.610;2022-11-18T07:24:21;22.20;51.90
70986;DHT22;58645;43.068;25.610;2022-11-18T07:26:47;22.70;51.20
70986;DHT22;58645;43.068;25.610;2022-11-18T07:29:12;23.10;49.80
70986;DHT22;58645;43.068;25.610;2022-11-18T07:31:38;23.60;48.90
70986;DHT22;58645;43.068;25.610;2022-11-18T07:34:04;23.70;48.90
70986;DHT22;58645;43.068;25.610;2022-11-18T07:36:36;23.70;48.40
70986;DHT22;58645;43.068;25.610;2022-11-18T07:39:05;23.90;49.90
70986;DHT22;58645;43.068;25.610;2022-11-18T07:41:34;23.10;50.50
70986;DHT22;58645;43.068;25.610;2022-11-18T07:44:16;22.70;51.40
70986;DHT22;58645;43.068;25.610;2022-11-18T07:46:45;22.60;50.80
70986;DHT22;58645;43.068;25.610;2022-11-18T07:53:04;23.20;50.80
70986;DHT22;58645;43.068;25.610;2022-11-18T07:55:29;23.90;49.30
70986;DHT22;58645;43.068;25.610;2022-11-18T07:58:12;24.70;48.10
70986;DHT22;58645;43.068;25.610;2022-11-18T08:00:38;25.10;46.60
70986;DHT22;58645;43.068;25.610;2022-11-18T08:03:07;25.20;46.80
70986;DHT22;58645;43.068;25.610;2022-11-18T08:05:32;25.30;46.00
70986;DHT22;58645;43.068;25.610;2022-11-18T08:07:59;25.50;46.60
70986;DHT22;58645;43.068;25.610;2022-11-18T08:10:31;25.50;45.60
70986;DHT22;58645;43.068;25.610;2022-11-18T08:13:23;25.60;45.40
70986;DHT22;58645;43.068;25.610;2022-11-18T08:15:50;25.80;46.00
70986;DHT22;58645;43.068;25.610;2022-11-18T08:18:16;26.50;44.70
70986;DHT22;58645;43.068;25.610;2022-11-18T08:20:42;26.80;44.00
70986;DHT22;58645;43.068;25.610;2022-11-18T08:23:10;27.00;44.30
70986;DHT22;58645;43.068;25.610;2022-11-18T08:25:40;27.10;43.40
70986;DHT22;58645;43.068;25.610;2022-11-18T08:28:06;27.20;43.00
70986;DHT22;58645;43.068;25.610;2022-11-18T08:30:32;27.50;42.70
70986;DHT22;58645;43.068;25.610;2022-11-18T08:33:01;27.70;41.80
70986;DHT22;58645;43.068;25.610;2022-11-18T08:35:31;27.80;41.60
70986;DHT22;58645;43.068;25.610;2022-11-18T08:37:57;28.10;41.90
70986;DHT22;58645;43.068;25.610;2022-11-18T08:40:23;28.30;42.20
70986;DHT22;58645;43.068;25.610;2022-11-18T08:42:50;28.50;41.60
70986;DHT22;58645;43.068;25.610;2022-11-18T08:45:16;28.60;41.50
70986;DHT22;58645;43.068;25.610;2022-11-18T08:47:42;28.90;41.00
70986;DHT22;58645;43.068;25.610;2022-11-18T08:50:09;29.40;40.20
70986;DHT22;58645;43.068;25.610;2022-11-18T08:52:36;29.60;39.10
70986;DHT22;58645;43.068;25.610;2022-11-18T08:55:03;30.10;38.80
70986;DHT22;58645;43.068;25.610;2022-11-18T08:57:29;30.50;38.10
70986;DHT22;58645;43.068;25.610;2022-11-18T08:59:55;30.70;37.20
70986;DHT22;58645;43.068;25.610;2022-11-18T09:02:22;30.70;36.80
70986;DHT22;58645;43.068;25.610;2022-11-18T09:04:49;31.10;36.00
70986;DHT22;58645;43.068;25.610;2022-11-18T09:07:16;31.50;34.70
70986;DHT22;58645;43.068;25.610;2022-11-18T09:09:42;31.50;35.40
70986;DHT22;58645;43.068;25.610;2022-11-18T09:12:08;31.40;35.80
70986;DHT22;58645;43.068;25.610;2022-11-18T09:14:34;31.50;35.40
70986;DHT22;58645;43.068;25.610;2022-11-18T09:17:00;31.70;34.80
70986;DHT22;58645;43.068;25.610;2022-11-18T09:19:26;32.00;34.20
70986;DHT22;58645;43.068;25.610;2022-11-18T09:21:55;32.30;33.70
70986;DHT22;58645;43.068;25.610;2022-11-18T09:24:23;32.50;33.50
70986;DHT22;58645;43.068;25.610;2022-11-18T09:27:02;32.20;34.00
70986;DHT22;58645;43.068;25.610;2022-11-18T09:29:29;31.80;33.80
70986;DHT22;58645;43.068;25.610;2022-11-18T09:31:55;31.90;33.10
70986;DHT22;58645;43.068;25.610;2022-11-18T09:34:21;32.40;32.70
70986;DHT22;58645;43.068;25.610;2022-11-18T09:36:47;32.60;31.70
70986;DHT22;58645;43.068;25.610;2022-11-18T09:39:13;32.80;32.10
70986;DHT22;58645;43.068;25.610;2022-11-18T09:41:47;32.70;31.70
70986;DHT22;58645;43.068;25.610;2022-11-18T09:49:49;33.10;32.20
70986;DHT22;58645;43.068;25.610;2022-11-18T09:52:30;33.40;31.20
70986;DHT22;58645;43.068;25.610;2022-11-18T09:54:58;33.90;29.90
70986;DHT22;58645;43.068;25.610;2022-11-18T09:57:51;34.00;30.40
70986;DHT22;58645;43.068;25.610;2022-11-18T10:00:23;34.30;29.30
70986;DHT22;58645;43.068;25.610;2022-11-18T10:05:24;34.90;28.20
70986;DHT22;58645;43.068;25.610;2022-11-18T10:07:57;34.90;27.70
70986;DHT22;58645;43.068;25.610;2022-11-18T10:10:53;35.00;28.50
70986;DHT22;58645;43.068;25.610;2022-11-18T10:16:20;34.30;27.60
70986;DHT22;58645;43.068;25.610;2022-11-18T10:19:21;34.40;27.30
70986;DHT22;58645;43.068;25.610;2022-11-18T10:22:09;34.40;25.10
70986;DHT22;58645;43.068;25.610;2022-11-18T10:24:42;34.30;25.10
70986;DHT22;58645;43.068;25.610;2022-11-18T10:27:15;34.20;26.90
70986;DHT22;58645;43.068;25.610;2022-11-18T10:29:51;34.30;25.70
70986;DHT22;58645;43.068;25.610;2022-11-18T10:32:18;34.10;25.70
70986;DHT22;58645;43.068;25.610;2022-11-18T10:35:19;34.20;26.60
70986;DHT22;58645;43.068;25.610;2022-11-18T10:38:16;33.60;26.00
70986;DHT22;58645;43.068;25.610;2022-11-18T10:48:44;33.60;25.20
70986;DHT22;58645;43.068;25.610;2022-11-18T10:51:21;34.00;25.40
70986;DHT22;58645;43.068;25.610;2022-11-18T10:53:47;34.00;25.00
70986;DHT22;58645;43.068;25.610;2022-11-18T10:56:13;34.50;25.00
70986;DHT22;58645;43.068;25.610;2022-11-18T10:58:48;34.50;23.80
70986;DHT22;58645;43.068;25.610;2022-11-18T11:01:21;34.60;25.00
70986;DHT22;58645;43.068;25.610;2022-11-18T11:06:42;34.30;24.10
70986;DHT22;58645;43.068;25.610;2022-11-18T11:11:42;34.20;24.10
70986;DHT22;58645;43.068;25.610;2022-11-18T11:14:43;33.20;24.90
70986;DHT22;58645;43.068;25.610;2022-11-18T11:17:15;33.30;25.30
70986;DHT22;58645;43.068;25.610;2022-11-18T11:19:47;33.00;25.50
70986;DHT22;58645;43.068;25.610;2022-11-18T11:22:14;33.20;25.20
70986;DHT22;58645;43.068;25.610;2022-11-18T11:24:40;33.00;25.70
70986;DHT22;58645;43.068;25.610;2022-11-18T11:30:04;32.90;24.70
70986;DHT22;58645;43.068;25.610;2022-11-18T11:35:24;32.30;25.70
70986;DHT22;58645;43.068;25.610;2022-11-18T11:37:55;31.30;28.00
70986;DHT22;58645;43.068;25.610;2022-11-18T11:40:58;31.00;28.40
70986;DHT22;58645;43.068;25.610;2022-11-18T11:52:04;27.50;34.90
70986;DHT22;58645;43.068;25.610;2022-11-18T12:00:48;25.00;40.10
70986;DHT22;58645;43.068;25.610;2022-11-18T12:06:00;24.20;41.90
70986;DHT22;58645;43.068;25.610;2022-11-18T12:08:28;23.60;43.80
70986;DHT22;58645;43.068;25.610;2022-11-18T12:11:12;23.40;44.40
70986;DHT22;58645;43.068;25.610;2022-11-18T12:13:45;23.20;45.00
70986;DHT22;58645;43.068;25.610;2022-11-18T12:19:07;23.00;46.10
70986;DHT22;58645;43.068;25.610;2022-11-18T12:26:43;22.00;48.60
70986;DHT22;58645;43.068;25.610;2022-11-18T12:31:59;21.60;49.70
70986;DHT22;58645;43.068;25.610;2022-11-18T12:39:58;21.30;50.60
70986;DHT22;58645;43.068;25.610;2022-11-18T12:42:44;21.30;50.80
70986;DHT22;58645;43.068;25.610;2022-11-18T12:51:00;20.60;53.10
70986;DHT22;58645;43.068;25.610;2022-11-18T12:53:42;20.60;53.30
70986;DHT22;58645;43.068;25.610;2022-11-18T12:56:25;20.50;53.80
70986;DHT22;58645;43.068;25.610;2022-11-18T12:58:56;20.50;54.00
70986;DHT22;58645;43.068;25.610;2022-11-18T13:01:32;20.30;55.30
70986;DHT22;58645;43.068;25.610;2022-11-18T13:04:17;20.10;55.80
70986;DHT22;58645;43.068;25.610;2022-11-18T13:06:44;20.00;56.20
70986;DHT22;58645;43.068;25.610;2022-11-18T13:09:22;19.90;56.60
70986;DHT22;58645;43.068;25.610;2022-11-18T13:12:02;19.90;56.80
70986;DHT22;58645;43.068;25.610;2022-11-18T13:14:33;19.90;56.80
70986;DHT22;58645;43.068;25.610;2022-11-18T13:17:35;19.90;56.90
70986;DHT22;58645;43.068;25.610;2022-11-18T13:20:24;19.90;56.90
70986;DHT22;58645;43.068;25.610;2022-11-18T13:22:57;19.90;57.20
70986;DHT22;58645;43.068;25.610;2022-11-18T13:25:43;19.70;57.50
70986;DHT22;58645;43.068;25.610;2022-11-18T13:33:48;19.60;57.50
70986;DHT22;58645;43.068;25.610;2022-11-18T13:36:22;19.60;57.50
70986;DHT22;58645;43.068;25.610;2022-11-18T13:39:00;19.60;57.50
70986;DHT22;58645;43.068;25.610;2022-11-18T13:41:27;19.60;57.50
70986;DHT22;58645;43.068;25.610;2022-11-18T13:44:38;19.60;57.10
70986;DHT22;58645;43.068;25.610;2022-11-18T13:49:49;19.50;57.80
70986;DHT22;58645;43.068;25.610;2022-11-18T13:55:21;19.20;58.40
70986;DHT22;58645;43.068;25.610;2022-11-18T13:58:50;19.20;58.50
70986;DHT22;58645;43.068;25.610;2022-11-18T14:00:59;19.10;58.50
70986;DHT22;58645;43.068;25.610;2022-11-18T14:03:32;19.00;58.90
70986;DHT22;58645;43.068;25.610;2022-11-18T14:05:59;18.80;58.90
70986;DHT22;58645;43.068;25.610;2022-11-18T14:08:36;18.80;59.10
70986;DHT22;58645;43.068;25.610;2022-11-18T14:11:03;18.70;59.20
70986;DHT22;58645;43.068;25.610;2022-11-18T14:13:32;18.60;59.20
70986;DHT22;58645;43.068;25.610;2022-11-18T14:16:03;18.50;59.30
70986;DHT22;58645;43.068;25.610;2022-11-18T14:18:49;18.40;59.20
70986;DHT22;58645;43.068;25.610;2022-11-18T14:21:33;18.40;59.10
70986;DHT22;58645;43.068;25.610;2022-11-18T14:24:00;18.40;59.20
70986;DHT22;58645;43.068;25.610;2022-11-18T14:26:36;18.40;59.20
70986;DHT22;58645;43.068;25.610;2022-11-18T14:29:17;18.30;59.30
70986;DHT22;58645;43.068;25.610;2022-11-18T14:34:38;18.30;59.70
70986;DHT22;58645;43.068;25.610;2022-11-18T14:37:10;18.20;59.80
70986;DHT22;58645;43.068;25.610;2022-11-18T14:39:37;18.20;60.40
70986;DHT22;58645;43.068;25.610;2022-11-18T14:42:03;18.20;60.70
70986;DHT22;58645;43.068;25.610;2022-11-18T14:44:31;18.20;60.90
70986;DHT22;58645;43.068;25.610;2022-11-18T14:47:02;18.20;61.80
70986;DHT22;58645;43.068;25.610;2022-11-18T14:49:29;18.20;63.00
70986;DHT22;58645;43.068;25.610;2022-11-18T14:51:56;18.20;63.90
70986;DHT22;58645;43.068;25.610;2022-11-18T14:54:24;18.20;64.80
70986;DHT22;58645;43.068;25.610;2022-11-18T14:56:50;18.10;65.00
70986;DHT22;58645;43.068;25.610;2022-11-18T14:59:19;18.10;66.20
70986;DHT22;58645;43.068;25.610;2022-11-18T15:01:45;18.10;67.00
70986;DHT22;58645;43.068;25.610;2022-11-18T15:04:11;18.00;67.30
70986;DHT22;58645;43.068;25.610;2022-11-18T15:06:38;18.00;68.30
70986;DHT22;58645;43.068;25.610;2022-11-18T15:09:05;18.00;68.50
70986;DHT22;58645;43.068;25.610;2022-11-18T15:11:34;17.90;69.00
70986;DHT22;58645;43.068;25.610;2022-11-18T15:14:00;17.90;69.50
70986;DHT22;58645;43.068;25.610;2022-11-18T15:16:28;17.90;70.40
70986;DHT22;58645;43.068;25.610;2022-11-18T15:18:57;17.80;70.40
70986;DHT22;58645;43.068;25.610;2022-11-18T15:21:24;17.80;70.50
70986;DHT22;58645;43.068;25.610;2022-11-18T15:23:50;17.70;71.20
70986;DHT22;58645;43.068;25.610;2022-11-18T15:26:24;17.70;71.60
70986;DHT22;58645;43.068;25.610;2022-11-18T15:28:55;17.70;72.20
70986;DHT22;58645;43.068;25.610;2022-11-18T15:31:22;17.70;72.40
70986;DHT22;58645;43.068;25.610;2022-11-18T15:33:48;17.70;72.50
70986;DHT22;58645;43.068;25.610;2022-11-18T15:36:20;17.70;72.90
70986;DHT22;58645;43.068;25.610;2022-11-18T15:38:47;17.70;73.10
70986;DHT22;58645;43.068;25.610;2022-11-18T15:41:18;17.70;73.40
70986;DHT22;58645;43.068;25.610;2022-11-18T15:43:48;17.60;73.50
70986;DHT22;58645;43.068;25.610;2022-11-18T15:46:17;17.60;73.70
70986;DHT22;58645;43.068;25.610;2022-11-18T15:48:44;17.60;73.80
70986;DHT22;58645;43.068;25.610;2022-11-18T15:51:10;17.60;74.00
70986;DHT22;58645;43.068;25.610;2022-11-18T15:53:35;17.60;74.20
70986;DHT22;58645;43.068;25.610;2022-11-18T15:56:19;17.50;74.30
70986;DHT22;58645;43.068;25.610;2022-11-18T16:01:23;17.50;74.90
70986;DHT22;58645;43.068;25.610;2022-11-18T16:03:49;17.40;75.20
70986;DHT22;58645;43.068;25.610;2022-11-18T16:06:15;17.40;75.40
70986;DHT22;58645;43.068;25.610;2022-11-18T16:08:41;17.40;75.60
70986;DHT22;58645;43.068;25.610;2022-11-18T16:11:10;17.30;75.90
70986;DHT22;58645;43.068;25.610;2022-11-18T16:14:01;17.30;76.10
70986;DHT22;58645;43.068;25.610;2022-11-18T16:16:27;17.30;76.50
70986;DHT22;58645;43.068;25.610;2022-11-18T16:18:55;17.30;76.60
70986;DHT22;58645;43.068;25.610;2022-11-18T16:21:22;17.30;76.90
70986;DHT22;58645;43.068;25.610;2022-11-18T16:23:48;17.30;77.10
70986;DHT22;58645;43.068;25.610;2022-11-18T16:26:14;17.30;77.10
70986;DHT22;58645;43.068;25.610;2022-11-18T16:28:40;17.30;77.10
70986;DHT22;58645;43.068;25.610;2022-11-18T16:31:06;17.30;77.10
70986;DHT22;58645;43.068;25.610;2022-11-18T16:33:50;17.30;77.20
70986;DHT22;58645;43.068;25.610;2022-11-18T16:36:16;17.30;77.30
70986;DHT22;58645;43.068;25.610;2022-11-18T16:38:42;17.30;77.40
70986;DHT22;58645;43.068;25.610;2022-11-18T16:41:08;17.30;77.60
70986;DHT22;58645;43.068;25.610;2022-11-18T16:43:52;17.20;77.50
70986;DHT22;58645;43.068;25.610;2022-11-18T16:46:18;17.20;77.90
70986;DHT22;58645;43.068;25.610;2022-11-18T16:48:43;17.20;77.90
70986;DHT22;58645;43.068;25.610;2022-11-18T16:53:49;17.20;78.10
70986;DHT22;58645;43.068;25.610;2022-11-18T16:56:16;17.10;78.20
70986;DHT22;58645;43.068;25.610;2022-11-18T16:58:41;17.10;78.40
70986;DHT22;58645;43.068;25.610;2022-11-18T17:01:11;17.10;78.50
70986;DHT22;58645;43.068;25.610;2022-11-18T17:03:37;17.10;78.50
70986;DHT22;58645;43.068;25.610;2022-11-18T17:06:03;17.10;78.70
70986;DHT22;58645;43.068;25.610;2022-11-18T17:08:32;17.10;78.80
70986;DHT22;58645;43.068;25.610;2022-11-18T17:11:06;17.10;78.90
70986;DHT22;58645;43.068;25.610;2022-11-18T17:13:33;17.10;78.80
70986;DHT22;58645;43.068;25.610;2022-11-18T17:16:03;17.10;78.90
70986;DHT22;58645;43.068;25.610;2022-11-18T17:18:28;17.20;79.00
70986;DHT22;58645;43.068;25.610;2022-11-18T17:20:54;17.20;78.90
70986;DHT22;58645;43.068;25.610;2022-11-18T17:23:20;17.20;79.10
70986;DHT22;58645;43.068;25.610;2022-11-18T17:25:45;17.20;79.40
70986;DHT22;58645;43.068;25.610;2022-11-18T17:28:11;17.20;79.70
70986;DHT22;58645;43.068;25.610;2022-11-18T17:30:37;17.20;80.00
70986;DHT22;58645;43.068;25.610;2022-11-18T17:33:02;17.20;80.30
70986;DHT22;58645;43.068;25.610;2022-11-18T17:35:28;17.20;80.30
70986;DHT22;58645;43.068;25.610;2022-11-18T17:37:54;17.20;80.40
70986;DHT22;58645;43.068;25.610;2022-11-18T17:40:19;17.20;80.60
70986;DHT22;58645;43.068;25.610;2022-11-18T17:42:45;17.20;80.50
70986;DHT22;58645;43.068;25.610;2022-11-18T17:45:14;17.30;80.60
70986;DHT22;58645;43.068;25.610;2022-11-18T17:47:39;17.30;80.60